Terminal Aerodrome Forecast
Issued by NWS Wichita, KS

Home | Current Version | Previous Version | Graphics & Text | Print | Product List | Glossary On
Versions: 1 2 3 4 5 6 7 8 9 10 11 12 13 14
000
FTUS43 KICT 180520
TAFICT
TAF
KICT 180520Z 1806/1906 27026G35KT P6SM FEW200
     FM180700 32030G40KT P6SM FEW250
     FM180900 32025G34KT P6SM FEW250
     FM182300 34018G26KT P6SM SKC
     FM190300 36008KT P6SM SKC=

USA.gov is the U.S. government's official web portal to all federal, state and local government web resources and services.